Time;durP1;ratioP1;P1;durP2;ratioP2;P2;SDS_P1;SDS_P2;PMS_P1;PMS_P2;Temp;Humidity;BMP_temperature;BMP_pressure;BME280_temperature;BME280_humidity;BME280_pressure;Samples;Min_cycle;Max_cycle;Signal;HPM_P1;HPM_P2
2023/03/25 00:01:01;;;;;;;24.40;23.08;;;;;;;15.48;55.38;100115.66;5034880;28;20481;-79
2023/03/25 00:03:29;;;;;;;23.23;22.02;;;;;;;15.48;55.38;100113.72;5034620;28;20061;-79
2023/03/25 00:05:56;;;;;;;23.52;22.33;;;;;;;15.45;55.29;100117.03;5050549;28;20033;-79
2023/03/25 00:08:23;;;;;;;23.65;22.42;;;;;;;15.45;55.41;100114.31;5034900;28;20076;-80
2023/03/25 00:10:53;;;;;;;23.80;22.45;;;;;;;15.45;55.07;100105.34;5033192;28;20116;-80
2023/03/25 00:13:20;;;;;;;22.70;21.60;;;;;;;15.43;55.17;100100.19;5034199;28;20493;-78
2023/03/25 00:15:46;;;;;;;23.77;22.60;;;;;;;15.40;55.56;100113.56;5034330;28;20033;-80
2023/03/25 00:18:13;;;;;;;24.65;23.35;;;;;;;15.39;55.22;100110.03;5032795;28;20029;-80
2023/03/25 00:20:39;;;;;;;23.15;22.05;;;;;;;15.40;55.30;100110.84;5034453;28;20068;-79
2023/03/25 00:23:08;;;;;;;24.92;23.40;;;;;;;15.40;55.38;100108.94;5034060;28;20025;-79
2023/03/25 00:25:33;;;;;;;22.75;21.65;;;;;;;15.39;55.08;100109.22;5016844;28;20425;-78
2023/03/25 00:27:59;;;;;;;22.05;20.85;;;;;;;15.39;55.35;100112.75;5034044;28;20059;-78
2023/03/25 00:30:24;;;;;;;23.40;22.20;;;;;;;15.39;55.22;100109.22;5033957;28;20030;-79
2023/03/25 00:32:51;;;;;;;23.40;22.20;;;;;;;15.35;55.31;100114.44;5034060;28;20037;-79
2023/03/25 00:35:18;;;;;;;24.30;22.58;;;;;;;15.36;55.44;100105.97;5033234;28;20037;-78
2023/03/25 00:37:46;;;;;;;24.05;22.73;;;;;;;15.35;55.32;100114.44;5033957;28;20040;-79
2023/03/25 00:40:13;;;;;;;25.33;23.95;;;;;;;15.34;55.08;100105.44;5032468;28;20038;-77
2023/03/25 00:42:43;;;;;;;23.58;22.20;;;;;;;15.34;55.45;100108.16;5033490;28;20535;-77
2023/03/25 00:45:12;;;;;;;23.52;22.23;;;;;;;15.31;55.03;100106.03;5034014;28;20036;-77
2023/03/25 00:47:37;;;;;;;21.65;20.45;;;;;;;15.30;55.45;100103.63;5034306;28;20056;-77
2023/03/25 00:50:04;;;;;;;25.25;23.77;;;;;;;15.29;55.38;100100.06;5033302;28;20433;-76
2023/03/25 00:52:30;;;;;;;25.00;23.70;;;;;;;15.29;55.20;100108.22;5033748;28;20038;-77
2023/03/25 00:54:55;;;;;;;22.65;21.50;;;;;;;15.26;54.92;100103.38;5048891;28;20033;-78
2023/03/25 00:57:21;;;;;;;23.60;22.30;;;;;;;15.26;55.31;100089.75;5032407;28;20116;-78
2023/03/25 00:59:46;;;;;;;24.80;23.40;;;;;;;15.25;55.11;100098.22;5033881;28;20041;-77
2023/03/25 01:02:12;;;;;;;23.88;22.48;;;;;;;15.23;54.87;100097.72;5032301;28;20436;-80
2023/03/25 01:04:38;;;;;;;22.77;21.48;;;;;;;15.23;55.08;100103.16;5033549;28;20034;-79
2023/03/25 01:07:04;;;;;;;22.65;21.45;;;;;;;15.22;55.21;100091.47;5033558;28;20030;-78
2023/03/25 01:09:30;;;;;;;25.90;24.50;;;;;;;15.23;55.04;100093.06;5032234;28;20025;-78
2023/03/25 01:11:56;;;;;;;23.55;22.27;;;;;;;15.21;55.09;100100.69;5033433;28;20045;-77
2023/03/25 01:14:28;;;;;;;24.58;23.27;;;;;;;15.18;55.03;100101.28;5033468;28;20116;-78
2023/03/25 01:16:54;;;;;;;23.85;22.65;;;;;;;15.20;55.17;100109.19;5033718;28;20033;-78
2023/03/25 01:19:20;;;;;;;23.13;21.83;;;;;;;15.18;55.18;100101.28;5033646;28;20079;-79
2023/03/25 01:21:45;;;;;;;22.70;21.58;;;;;;;15.18;55.39;100105.94;5033375;28;20061;-79
2023/03/25 01:24:13;;;;;;;25.42;23.83;;;;;;;15.15;54.96;100102.69;5032366;28;20057;-79
2023/03/25 01:26:48;;;;;;;23.67;22.48;;;;;;;15.14;55.29;100113.84;5033573;28;20482;-78
2023/03/25 01:29:16;;;;;;;23.60;22.30;;;;;;;15.15;55.00;100118.19;5033589;28;20034;-79
2023/03/25 01:31:42;;;;;;;21.88;20.63;;;;;;;15.12;55.44;100108.69;5033014;28;20124;-80
2023/03/25 01:34:09;;;;;;;22.25;20.95;;;;;;;15.12;55.23;100111.41;5033737;28;20104;-77
2023/03/25 01:36:36;;;;;;;24.00;22.70;;;;;;;15.08;55.16;100107.66;5033276;28;20034;-78
2023/03/25 01:39:04;;;;;;;23.85;22.38;;;;;;;15.12;55.48;100099.72;5033682;28;20041;-78
2023/03/25 01:41:31;;;;;;;22.10;21.02;;;;;;;15.13;55.06;100115.75;5032051;28;20481;-77
2023/03/25 01:44:08;;;;;;;23.98;22.67;;;;;;;15.12;54.96;100103.25;5032903;28;20037;-77
2023/03/25 01:46:36;;;;;;;23.05;21.95;;;;;;;15.12;54.96;100097.81;5033234;28;20033;-77
2023/03/25 01:49:06;;;;;;;22.23;20.67;;;;;;;15.13;55.40;100098.63;5033441;28;20053;-78
2023/03/25 01:51:37;;;;;;;22.73;21.58;;;;;;;15.12;55.36;100095.09;5033318;28;20040;-78
2023/03/25 01:54:03;;;;;;;22.55;21.13;;;;;;;15.11;55.16;100090.75;5032784;28;20028;-77
2023/03/25 01:56:33;;;;;;;22.70;21.27;;;;;;;15.11;55.05;100092.66;5037090;28;20037;-78
2023/03/25 01:59:03;;;;;;;21.30;20.27;;;;;;;15.10;54.92;100091.84;5036943;28;20063;-77
2023/03/25 02:01:30;;;;;;;23.23;21.48;;;;;;;15.07;55.22;100088.91;5037438;28;20029;-78
2023/03/25 02:04:01;;;;;;;22.88;21.67;;;;;;;15.06;55.50;100090.00;5036572;28;20036;-78
2023/03/25 02:06:34;;;;;;;23.63;22.27;;;;;;;15.02;55.56;100091.66;5035530;28;20500;-77
2023/03/25 02:09:05;;;;;;;22.27;21.17;;;;;;;15.02;55.34;100097.09;5036780;28;20026;-78
2023/03/25 02:11:31;;;;;;;22.20;20.95;;;;;;;15.02;55.45;100088.94;5052258;28;20025;-78
2023/03/25 02:14:00;;;;;;;23.10;21.80;;;;;;;15.01;55.16;100090.84;5036847;28;20048;-78
2023/03/25 02:17:08;;;;;;;23.15;21.85;;;;;;;15.00;55.31;100085.72;5036821;28;20025;-78
2023/03/25 02:20:12;;;;;;;22.77;21.50;;;;;;;15.01;55.47;100079.16;5005647;28;20037;-77
2023/03/25 02:23:00;;;;;;;21.10;20.00;;;;;;;14.97;55.40;100078.94;5037400;28;20022;-78
2023/03/25 02:25:44;;;;;;;23.45;21.75;;;;;;;14.92;55.29;100079.00;5036632;28;20478;-78
2023/03/25 02:28:41;;;;;;;22.17;21.05;;;;;;;14.91;55.42;100080.09;5036274;28;20028;-78
2023/03/25 02:31:47;;;;;;;21.55;20.10;;;;;;;14.89;55.53;100074.13;5036470;28;20061;-77
2023/03/25 02:34:53;;;;;;;21.95;20.63;;;;;;;14.87;55.77;100070.91;5036203;28;20481;-78
2023/03/25 02:37:49;;;;;;;21.98;20.83;;;;;;;14.86;55.55;100077.41;5036019;28;20052;-78
2023/03/25 02:40:19;;;;;;;20.88;19.85;;;;;;;14.85;55.76;100073.88;5036569;28;20484;-77
2023/03/25 02:42:47;;;;;;;21.67;20.58;;;;;;;14.84;55.64;100069.56;5035971;28;20129;-78
2023/03/25 02:45:21;;;;;;;20.30;19.23;;;;;;;14.86;55.64;100069.25;5035004;28;20038;-78
2023/03/25 02:47:51;;;;;;;21.95;20.65;;;;;;;14.86;55.51;100072.78;5036022;28;20100;-78
2023/03/25 02:50:23;;;;;;;20.23;19.23;;;;;;;14.86;55.70;100070.06;5051271;28;20053;-77
2023/03/25 02:52:55;;;;;;;21.48;20.35;;;;;;;14.86;55.57;100071.97;5035619;28;20105;-78
2023/03/25 02:55:24;;;;;;;22.45;21.17;;;;;;;14.86;55.34;100070.06;5035628;28;20025;-78
2023/03/25 02:57:51;;;;;;;;;;;;;;;14.81;55.30;100078.28;5036183;28;20029;-78
2023/03/25 03:00:22;;;;;;;20.50;19.40;;;;;;;14.80;55.74;100067.69;5035693;28;19920;-77
2023/03/25 03:02:58;;;;;;;20.98;19.77;;;;;;;14.79;55.31;100066.06;5036048;28;20060;-78
2023/03/25 03:05:40;;;;;;;21.92;20.52;;;;;;;14.76;55.76;100058.47;5036131;28;20025;-78
2023/03/25 03:08:17;;;;;;;22.98;21.63;;;;;;;14.79;55.57;100068.78;5035705;28;20029;-78
2023/03/25 03:11:14;;;;;;;20.83;19.75;;;;;;;14.78;55.62;100064.44;5036037;28;20104;-78
2023/03/25 03:13:58;;;;;;;21.73;20.42;;;;;;;14.76;55.76;100063.91;5035387;28;20422;-78
2023/03/25 03:16:43;;;;;;;22.30;20.85;;;;;;;14.76;55.70;100072.88;5035359;28;20033;-77
2023/03/25 03:19:46;;;;;;;20.65;19.55;;;;;;;14.73;55.89;100065.31;5035234;28;20025;-78
2023/03/25 03:22:37;;;;;;;21.33;20.13;;;;;;;14.72;55.96;100058.25;5035341;28;20029;-78
2023/03/25 03:25:15;;;;;;;21.65;20.42;;;;;;;14.73;55.58;100054.44;5036103;28;20029;-78
2023/03/25 03:27:48;;;;;;;24.08;21.70;;;;;;;14.71;55.80;100056.63;5036256;28;20028;-78
2023/03/25 03:30:21;;;;;;;22.58;21.38;;;;;;;14.66;55.78;100052.03;5035814;28;20037;-78
2023/03/25 03:33:14;;;;;;;21.05;19.95;;;;;;;14.67;55.97;100048.25;5035061;28;20484;-77
2023/03/25 03:35:48;;;;;;;22.67;21.42;;;;;;;14.66;56.01;100054.75;5033888;28;20085;-77
2023/03/25 03:38:18;;;;;;;21.20;19.85;;;;;;;14.69;55.75;100037.06;5035147;28;20048;-77
2023/03/25 03:40:50;;;;;;;21.83;20.48;;;;;;;14.71;55.45;100045.75;5035372;28;20048;-77
2023/03/25 03:43:30;;;;;;;22.85;21.65;;;;;;;14.70;55.73;100041.41;5036036;28;20031;-77
2023/03/25 03:46:01;;;;;;;22.88;21.42;;;;;;;14.65;55.65;100045.00;5035709;28;20035;-77
2023/03/25 03:48:57;;;;;;;21.75;20.58;;;;;;;14.64;55.43;100045.28;5034860;28;20117;-77
2023/03/25 03:51:30;;;;;;;21.13;20.02;;;;;;;14.61;55.63;100051.28;5022407;28;20484;-76
2023/03/25 03:54:02;;;;;;;21.23;19.92;;;;;;;14.64;55.75;100048.81;5034838;28;20025;-77
2023/03/25 03:56:40;;;;;;;23.17;21.98;;;;;;;14.64;55.74;100054.25;5034515;28;20501;-77
2023/03/25 03:59:16;;;;;;;21.30;20.23;;;;;;;14.63;55.54;100044.47;5034604;28;20040;-78
2023/03/25 04:01:45;;;;;;;24.58;23.17;;;;;;;14.63;55.51;100049.91;5034941;28;20022;-77
2023/03/25 04:04:30;;;;;;;21.27;19.88;;;;;;;14.61;55.48;100037.69;5033215;28;20025;-77
2023/03/25 04:07:14;;;;;;;20.10;19.10;;;;;;;14.61;55.76;100043.13;5034834;28;20033;-76
2023/03/25 04:09:56;;;;;;;22.88;21.58;;;;;;;14.59;55.77;100046.16;5033843;28;20369;-77
2023/03/25 04:12:26;;;;;;;22.17;20.77;;;;;;;14.60;55.67;100055.91;5034384;28;20033;-77
2023/03/25 04:14:55;;;;;;;20.33;19.25;;;;;;;14.59;55.49;100048.03;5034759;28;20037;-78
2023/03/25 04:17:22;;;;;;;22.35;21.15;;;;;;;14.56;55.59;100043.19;5034490;28;20382;-79
2023/03/25 04:19:52;;;;;;;23.45;22.15;;;;;;;14.51;55.63;100052.16;5034115;28;20044;-77
2023/03/25 04:22:19;;;;;;;21.52;20.33;;;;;;;14.54;55.76;100048.91;5049448;28;20087;-79
2023/03/25 04:24:53;;;;;;;22.63;21.33;;;;;;;14.54;55.61;100048.09;5049450;28;20133;-76
2023/03/25 04:27:21;;;;;;;21.55;20.45;;;;;;;14.52;55.55;100056.50;5050236;28;20129;-77
2023/03/25 04:29:47;;;;;;;22.45;21.25;;;;;;;14.54;55.86;100053.53;5034086;28;20179;-77
2023/03/25 04:32:13;;;;;;;21.77;20.48;;;;;;;14.53;55.67;100047.28;5034026;28;20064;-78
2023/03/25 04:34:39;;;;;;;22.25;20.77;;;;;;;14.51;55.59;100054.88;5034058;28;20163;-77
2023/03/25 04:37:04;;;;;;;21.95;20.90;;;;;;;14.50;55.72;100069.56;5033951;28;20466;-77
2023/03/25 04:39:31;;;;;;;22.67;21.20;;;;;;;14.51;55.78;100060.31;5032331;28;20033;-78
2023/03/25 04:42:04;;;;;;;22.42;21.33;;;;;;;14.49;55.90;100068.75;5033950;28;20034;-79
2023/03/25 04:44:37;;;;;;;21.40;20.30;;;;;;;14.45;55.64;100056.03;5049379;28;20033;-78
2023/03/25 04:47:04;;;;;;;20.80;19.70;;;;;;;14.45;55.73;100066.91;5034340;28;20022;-78
2023/03/25 04:49:29;;;;;;;21.60;20.20;;;;;;;14.47;55.83;100068.22;5048663;28;20084;-77
2023/03/25 04:51:56;;;;;;;21.50;20.40;;;;;;;14.47;55.69;100065.50;5033911;28;20064;-79
2023/03/25 04:54:22;;;;;;;22.23;20.83;;;;;;;14.45;55.72;100078.56;5033644;28;20070;-79
2023/03/25 04:56:49;;;;;;;22.30;21.00;;;;;;;14.46;55.74;100063.91;5033584;28;20460;-78
2023/03/25 04:59:16;;;;;;;22.33;21.13;;;;;;;14.49;55.78;100076.13;5032183;28;20437;-79
2023/03/25 05:01:44;;;;;;;24.27;22.73;;;;;;;14.48;55.59;100071.75;5049111;28;20030;-77
2023/03/25 05:04:12;;;;;;;21.05;19.98;;;;;;;14.46;55.58;100068.50;5033873;28;20036;-77
2023/03/25 05:06:40;;;;;;;22.00;20.70;;;;;;;14.45;55.32;100061.47;5033438;28;20401;-77
2023/03/25 05:09:14;;;;;;;21.30;20.10;;;;;;;14.46;55.85;100071.22;5033987;28;20061;-77
2023/03/25 05:11:40;;;;;;;22.80;21.50;;;;;;;14.44;55.54;100063.38;5034225;28;20060;-77
2023/03/25 05:14:07;;;;;;;21.48;20.17;;;;;;;14.45;55.67;100072.34;5049653;28;20033;-78
2023/03/25 05:16:33;;;;;;;21.45;20.40;;;;;;;14.44;55.59;100062.56;5033367;28;20030;-76
2023/03/25 05:18:58;;;;;;;22.13;21.02;;;;;;;14.45;55.66;100070.41;5033770;28;20033;-77
2023/03/25 05:21:24;;;;;;;20.80;19.70;;;;;;;14.44;55.57;100070.72;5033779;28;20029;-77
2023/03/25 05:23:51;;;;;;;22.73;21.38;;;;;;;14.41;55.52;100079.41;5033259;28;20037;-76
2023/03/25 05:26:17;;;;;;;22.42;21.33;;;;;;;14.41;55.95;100082.13;5032426;28;20034;-77
2023/03/25 05:28:42;;;;;;;24.60;23.20;;;;;;;14.41;55.83;100076.69;5033292;28;20429;-77
2023/03/25 05:31:07;;;;;;;22.20;21.00;;;;;;;14.40;55.59;100077.81;5037396;28;20112;-77
2023/03/25 05:33:42;;;;;;;21.90;20.48;;;;;;;14.40;55.90;100072.38;5037194;28;20041;-76
2023/03/25 05:36:09;;;;;;;21.13;19.60;;;;;;;14.40;56.11;100073.19;5037293;28;20026;-77
2023/03/25 05:38:36;;;;;;;21.83;20.42;;;;;;;14.40;55.66;100080.53;5037100;28;20475;-77
2023/03/25 05:41:01;;;;;;;20.80;19.65;;;;;;;14.39;55.44;100074.28;5037505;28;20473;-77
2023/03/25 05:43:27;;;;;;;21.70;20.20;;;;;;;14.36;55.72;100076.75;5036907;28;20210;-78
2023/03/25 05:45:52;;;;;;;23.67;22.38;;;;;;;14.37;55.53;100089.25;5036959;28;20048;-77
2023/03/25 05:48:17;;;;;;;22.20;20.95;;;;;;;14.37;55.85;100092.78;5037705;28;20478;-77
2023/03/25 05:50:43;;;;;;;22.85;21.40;;;;;;;14.37;55.63;100100.13;5035827;28;20049;-77
2023/03/25 05:53:14;;;;;;;20.50;19.40;;;;;;;14.34;55.63;100103.38;5037266;28;20029;-77
2023/03/25 05:55:39;;;;;;;21.63;20.40;;;;;;;14.37;55.70;100109.06;5036851;28;20079;-77
2023/03/25 05:58:05;;;;;;;21.65;19.67;;;;;;;14.35;55.74;100102.31;5036939;28;20112;-77
2023/03/25 06:00:31;;;;;;;21.55;20.48;;;;;;;14.35;55.59;100096.88;5036783;28;20475;-78
2023/03/25 06:02:57;;;;;;;21.10;20.00;;;;;;;14.34;55.79;100096.06;5036778;28;20067;-77
2023/03/25 06:05:23;;;;;;;21.33;20.23;;;;;;;14.32;55.34;100103.69;5036429;28;20110;-78
2023/03/25 06:07:50;;;;;;;21.52;20.08;;;;;;;14.29;55.70;100096.09;5037380;28;20073;-77
2023/03/25 06:10:16;;;;;;;22.42;21.15;;;;;;;14.28;55.73;100111.56;5051786;28;20030;-77
2023/03/25 06:12:46;;;;;;;19.98;18.88;;;;;;;14.29;55.86;100093.38;5052143;28;20088;-76
2023/03/25 06:15:16;;;;;;;20.35;19.35;;;;;;;14.30;55.59;100111.28;5051858;28;20112;-76
2023/03/25 06:17:45;;;;;;;21.95;20.65;;;;;;;14.29;55.65;100115.13;5037191;28;20029;-79
2023/03/25 06:20:12;;;;;;;20.60;19.25;;;;;;;14.27;55.42;100101.00;5036830;28;20037;-78
2023/03/25 06:22:41;;;;;;;20.45;19.42;;;;;;;14.28;55.51;100116.19;5051773;28;20099;-76
2023/03/25 06:25:07;;;;;;;20.50;19.40;;;;;;;14.24;55.75;100107.81;5036020;28;20030;-79
2023/03/25 06:27:33;;;;;;;20.40;19.20;;;;;;;14.26;55.54;100104.78;5036318;28;20478;-79
2023/03/25 06:30:00;;;;;;;20.45;19.35;;;;;;;14.25;55.66;100108.63;5036765;28;20034;-78
2023/03/25 06:32:26;;;;;;;21.48;20.27;;;;;;;14.23;55.59;100111.59;5036308;28;20037;-79
2023/03/25 06:34:51;;;;;;;22.27;20.88;;;;;;;14.24;55.74;100120.59;5036056;28;20025;-79
2023/03/25 06:37:16;;;;;;;20.40;19.30;;;;;;;14.25;55.72;100109.44;5036189;28;20105;-79
2023/03/25 06:39:48;;;;;;;21.35;20.20;;;;;;;14.24;55.67;100112.44;5036360;28;20038;-78
2023/03/25 06:42:14;;;;;;;21.35;20.20;;;;;;;14.24;55.48;100115.97;5035090;28;20029;-78
2023/03/25 06:44:39;;;;;;;20.67;19.58;;;;;;;14.24;55.73;100128.75;5035726;28;20052;-77
2023/03/25 06:47:05;;;;;;;19.77;18.65;;;;;;;14.21;55.47;100127.41;5034758;28;20060;-78
2023/03/25 06:49:30;;;;;;;22.02;20.73;;;;;;;14.21;55.68;100130.13;5036006;28;20052;-78
2023/03/25 06:51:57;;;;;;;23.25;21.95;;;;;;;14.20;55.47;100131.19;5035847;28;20057;-79
2023/03/25 06:54:22;;;;;;;21.38;19.98;;;;;;;14.22;55.74;100134.44;5035800;28;20084;-79
2023/03/25 06:56:48;;;;;;;23.70;22.38;;;;;;;14.21;55.80;100132.00;5035737;28;20373;-78
2023/03/25 06:59:13;;;;;;;19.83;18.63;;;;;;;14.21;55.77;100127.41;5035961;28;20038;-79
2023/03/25 07:01:40;;;;;;;19.90;18.80;;;;;;;14.18;55.81;100122.50;5035693;28;20037;-79
2023/03/25 07:04:05;;;;;;;19.88;18.40;;;;;;;14.17;55.67;100130.97;5036095;28;20037;-79
2023/03/25 07:06:30;;;;;;;19.17;18.20;;;;;;;14.17;55.98;100130.97;5035876;28;20136;-78
2023/03/25 07:08:59;;;;;;;20.63;19.42;;;;;;;14.16;55.97;100130.16;5035224;28;20382;-80
2023/03/25 07:11:27;;;;;;;19.98;18.75;;;;;;;14.16;55.75;100130.16;5036158;28;20060;-80
2023/03/25 07:13:53;;;;;;;20.63;19.33;;;;;;;14.16;55.80;100135.59;5035204;28;20080;-80
2023/03/25 07:16:20;;;;;;;19.65;18.55;;;;;;;14.18;55.50;100130.66;5035438;28;20473;-81
2023/03/25 07:18:45;;;;;;;19.58;18.25;;;;;;;14.15;55.79;100133.13;5035701;28;20030;-81
2023/03/25 07:21:11;;;;;;;23.10;19.95;;;;;;;14.15;55.59;100144.00;5034385;28;20461;-80
2023/03/25 07:23:36;;;;;;;20.52;18.90;;;;;;;14.13;55.78;100143.47;5050391;28;20037;-80
2023/03/25 07:26:02;;;;;;;21.38;20.17;;;;;;;14.13;55.83;100138.84;5017410;28;20049;-79
2023/03/25 07:28:27;;;;;;;21.50;19.77;;;;;;;14.11;55.93;100142.94;5034996;28;20040;-81
2023/03/25 07:30:53;;;;;;;20.42;19.23;;;;;;;14.10;56.11;100149.47;5034265;28;20532;-81
2023/03/25 07:33:18;;;;;;;21.20;20.10;;;;;;;14.10;55.88;100150.25;5035146;28;20034;-81
2023/03/25 07:35:44;;;;;;;19.58;18.48;;;;;;;14.11;55.90;100141.03;5035088;28;20033;-77
2023/03/25 07:38:09;;;;;;;20.17;18.70;;;;;;;14.11;55.88;100151.91;5017407;28;20469;-78
2023/03/25 07:40:34;;;;;;;20.85;19.75;;;;;;;14.09;55.74;100150.56;5034728;28;20052;-81
2023/03/25 07:43:00;;;;;;;22.02;20.75;;;;;;;14.07;55.94;100150.84;5034917;28;20037;-80
2023/03/25 07:45:25;;;;;;;20.50;19.40;;;;;;;14.10;55.85;100147.56;5034886;28;20092;-80
2023/03/25 07:47:52;;;;;;;20.35;19.13;;;;;;;14.10;55.66;100163.03;5034497;28;20025;-80
2023/03/25 07:50:18;;;;;;;19.92;18.83;;;;;;;14.04;55.94;100146.78;5033686;28;20557;-80
2023/03/25 07:52:44;;;;;;;21.73;20.63;;;;;;;14.07;55.88;100159.78;5034934;28;20117;-80
2023/03/25 07:55:11;;;;;;;20.38;19.13;;;;;;;14.08;55.95;100168.75;5034600;28;20050;-78
2023/03/25 07:57:36;;;;;;;20.23;19.08;;;;;;;14.10;55.71;100165.75;5035137;28;20520;-79
2023/03/25 08:00:04;;;;;;;19.58;18.38;;;;;;;14.07;55.91;100173.38;5034465;28;20458;-79
2023/03/25 08:02:30;;;;;;;20.77;19.50;;;;;;;14.09;56.07;100173.09;5034419;28;20030;-78
2023/03/25 08:04:56;;;;;;;20.27;19.10;;;;;;;14.11;56.09;100176.34;5034480;28;20029;-78
2023/03/25 08:07:22;;;;;;;20.13;19.13;;;;;;;14.06;56.00;100171.75;5033736;28;20040;-77
2023/03/25 08:09:47;;;;;;;20.52;19.25;;;;;;;14.09;56.01;100183.16;5034371;28;20026;-76
2023/03/25 08:12:13;;;;;;;20.73;19.40;;;;;;;14.11;56.06;100189.94;5034293;28;20045;-78
2023/03/25 08:14:38;;;;;;;20.08;18.77;;;;;;;14.06;55.73;100179.06;5034396;28;20069;-80
2023/03/25 08:17:05;;;;;;;21.23;19.92;;;;;;;14.05;55.93;100183.69;5034175;28;20466;-79
2023/03/25 08:19:31;;;;;;;20.55;19.33;;;;;;;14.06;56.10;100198.91;5034251;28;20128;-79
2023/03/25 08:21:56;;;;;;;22.67;21.13;;;;;;;14.05;56.04;100208.13;5034572;28;20449;-80
2023/03/25 08:24:23;;;;;;;21.55;20.05;;;;;;;14.06;56.11;100198.91;5033636;28;20037;-78
2023/03/25 08:26:48;;;;;;;21.15;19.80;;;;;;;14.08;55.86;100204.03;5034062;28;20072;-79
2023/03/25 08:29:16;;;;;;;22.00;20.15;;;;;;;14.08;56.22;100206.75;5033289;28;20474;-80
2023/03/25 08:31:45;;;;;;;21.52;19.95;;;;;;;14.08;55.87;100195.91;5034034;28;20140;-78
2023/03/25 08:34:11;;;;;;;20.13;18.73;;;;;;;14.12;55.95;100188.03;5033041;28;20108;-80
2023/03/25 08:36:38;;;;;;;21.70;20.33;;;;;;;14.12;55.78;100186.13;5034450;28;20057;-79
2023/03/25 08:39:08;;;;;;;21.73;20.42;;;;;;;14.08;56.13;100187.75;5034475;28;20078;-78
2023/03/25 08:41:34;;;;;;;22.20;20.67;;;;;;;14.11;56.21;100184.50;5034101;28;20425;-79
2023/03/25 08:43:59;;;;;;;21.73;20.45;;;;;;;14.12;55.90;100182.59;5032720;28;20037;-80
2023/03/25 08:46:25;;;;;;;20.15;18.85;;;;;;;14.12;56.28;100199.69;5034018;28;20037;-79
2023/03/25 08:48:52;;;;;;;19.58;18.05;;;;;;;14.10;56.13;100191.00;5033878;28;20061;-75
2023/03/25 08:51:17;;;;;;;19.05;17.95;;;;;;;14.10;56.23;100188.28;5033106;28;20371;-79
2023/03/25 08:53:43;;;;;;;22.77;21.38;;;;;;;14.04;56.30;100198.38;5034166;28;20518;-82
2023/03/25 08:56:09;;;;;;;21.13;19.92;;;;;;;14.10;56.44;100201.06;5032673;28;20106;-78
2023/03/25 08:58:34;;;;;;;20.40;19.33;;;;;;;14.12;56.34;100205.13;5034286;28;20048;-80
2023/03/25 09:01:01;;;;;;;23.90;22.27;;;;;;;14.15;56.06;100198.31;5033482;28;20033;-78
2023/03/25 09:03:26;;;;;;;19.45;18.45;;;;;;;14.13;56.43;100211.38;5033740;28;20488;-79
2023/03/25 09:05:52;;;;;;;21.85;20.52;;;;;;;14.11;56.28;100194.53;5032879;28;20037;-77
2023/03/25 09:08:18;;;;;;;20.58;19.48;;;;;;;14.16;56.45;100200.78;5032630;28;20084;-79
2023/03/25 09:10:43;;;;;;;21.35;20.15;;;;;;;14.17;56.45;100199.66;5034019;28;20386;-79
2023/03/25 09:13:09;;;;;;;22.73;21.35;;;;;;;14.22;56.28;100201.53;5034232;28;20061;-79
2023/03/25 09:15:34;;;;;;;29.23;20.45;;;;;;;14.20;56.24;100207.25;5033609;28;20033;-78
2023/03/25 09:18:00;;;;;;;21.88;20.25;;;;;;;14.20;56.16;100201.81;5034094;28;20033;-80
2023/03/25 09:20:26;;;;;;;22.20;20.38;;;;;;;14.21;56.37;100197.19;5016873;28;20076;-78
2023/03/25 09:22:52;;;;;;;20.20;19.10;;;;;;;14.20;56.38;100199.09;5049485;28;20032;-80
2023/03/25 09:25:17;;;;;;;22.67;20.95;;;;;;;14.22;56.35;100196.91;5034253;28;20037;-79
2023/03/25 09:27:43;;;;;;;22.63;21.23;;;;;;;14.23;56.47;100197.72;5033325;28;20401;-78
2023/03/25 09:30:09;;;;;;;22.67;21.30;;;;;;;14.25;56.40;100200.97;5032290;28;20073;-78
2023/03/25 09:32:35;;;;;;;22.02;20.80;;;;;;;14.26;56.53;100211.56;5032875;28;20037;-79
2023/03/25 09:35:00;;;;;;;25.02;22.77;;;;;;;14.27;56.46;100204.22;5031420;28;20044;-79
2023/03/25 09:37:26;;;;;;;19.25;18.25;;;;;;;14.28;56.35;100214.81;5033141;28;20108;-79
2023/03/25 09:39:51;;;;;;;21.52;19.88;;;;;;;14.26;56.36;100203.44;5033478;28;20108;-82
2023/03/25 09:42:26;;;;;;;20.77;19.40;;;;;;;14.23;56.14;100201.25;5033273;28;20033;-78
2023/03/25 09:45:09;;;;;;;21.98;20.58;;;;;;;14.22;56.49;100206.97;5033729;28;20531;-78
2023/03/25 09:47:35;;;;;;;21.08;19.50;;;;;;;14.26;56.59;100217.00;5033295;28;20107;-78
2023/03/25 09:50:05;;;;;;;22.85;20.88;;;;;;;14.27;56.75;100220.53;5033449;28;20077;-78
2023/03/25 09:52:45;;;;;;;19.45;18.08;;;;;;;14.26;56.49;100217.00;5033873;28;20041;-80
2023/03/25 09:55:16;;;;;;;23.83;21.75;;;;;;;14.27;56.53;100217.81;5048740;28;20026;-76
2023/03/25 09:57:48;;;;;;;20.25;18.90;;;;;;;14.33;56.59;100221.31;5033064;28;20085;-77
2023/03/25 10:00:21;;;;;;;20.77;19.27;;;;;;;14.35;56.77;100225.38;5033459;28;20048;-78
2023/03/25 10:02:58;;;;;;;20.77;19.17;;;;;;;14.40;56.76;100217.19;5033331;28;20033;-77
2023/03/25 10:05:51;;;;;;;21.13;19.65;;;;;;;14.42;56.43;100215.00;5048379;28;20021;-77
2023/03/25 10:08:44;;;;;;;23.42;21.67;;;;;;;14.34;56.69;100209.34;5033432;28;20045;-79
2023/03/25 10:11:18;;;;;;;23.25;21.17;;;;;;;14.37;56.76;100223.19;5018289;28;20037;-77
2023/03/25 10:13:55;;;;;;;22.10;20.42;;;;;;;14.41;56.64;100213.41;5032875;28;20116;-77
2023/03/25 10:16:48;;;;;;;21.10;19.90;;;;;;;14.40;56.38;100227.25;5034808;28;20421;-78
2023/03/25 10:19:35;;;;;;;23.95;21.83;;;;;;;14.44;56.56;100226.41;5036708;28;20044;-77
2023/03/25 10:22:06;;;;;;;22.58;21.13;;;;;;;14.43;57.12;100221.25;5036535;28;20022;-76
2023/03/25 10:24:37;;;;;;;20.27;19.17;;;;;;;14.44;56.42;100217.47;5036341;28;20068;-77
2023/03/25 10:27:18;;;;;;;22.42;20.52;;;;;;;14.47;56.50;100225.84;5036276;28;20033;-76
2023/03/25 10:30:06;;;;;;;22.27;20.10;;;;;;;14.49;56.74;100228.28;5037128;28;20465;-77
2023/03/25 10:33:05;;;;;;;20.17;19.00;;;;;;;14.49;56.39;100220.94;5036039;28;20442;-78
2023/03/25 10:35:38;;;;;;;21.33;20.15;;;;;;;14.52;56.45;100213.34;5019896;28;20440;-78
2023/03/25 10:38:19;;;;;;;26.75;21.30;;;;;;;14.49;56.41;100201.13;5036171;28;20049;-76
2023/03/25 10:40:48;;;;;;;20.80;19.60;;;;;;;14.48;56.73;100213.88;5036155;28;20075;-77
2023/03/25 10:43:33;;;;;;;22.27;20.83;;;;;;;14.45;56.59;100235.38;5035888;28;20091;-77
2023/03/25 10:46:11;;;;;;;21.20;19.85;;;;;;;14.47;56.49;100222.31;5036228;28;20037;-80
2023/03/25 10:48:38;;;;;;;21.43;20.17;;;;;;;14.50;56.70;100229.91;5036180;28;20474;-80
2023/03/25 10:51:08;;;;;;;21.20;19.65;;;;;;;14.48;56.70;100229.38;5035683;28;20048;-81
2023/03/25 10:53:34;;;;;;;21.40;20.20;;;;;;;14.53;56.42;100223.09;5036007;28;20116;-81
2023/03/25 10:56:11;;;;;;;22.45;21.15;;;;;;;14.52;56.59;100244.03;5035526;28;20036;-82
2023/03/25 10:58:39;;;;;;;21.13;19.92;;;;;;;14.55;56.23;100235.34;5035749;28;20045;-79
2023/03/25 11:01:17;;;;;;;20.45;19.00;;;;;;;14.61;56.13;100225.25;5035847;28;20037;-79
2023/03/25 11:03:44;;;;;;;;;;;;;;;14.60;56.40;100231.78;5035826;28;20028;-79
2023/03/25 11:06:23;;;;;;;21.60;19.80;;;;;;;14.55;56.16;100251.66;5035726;28;19909;-78
2023/03/25 11:09:06;;;;;;;20.52;19.13;;;;;;;14.55;56.33;100246.22;5036369;28;20064;-79
2023/03/25 11:11:33;;;;;;;21.27;19.80;;;;;;;14.58;56.28;100266.59;5036110;28;20382;-79
2023/03/25 11:13:59;;;;;;;22.05;20.85;;;;;;;14.62;56.27;100260.31;5036533;28;20370;-78
2023/03/25 11:16:25;;;;;;;21.88;20.13;;;;;;;14.68;56.15;100259.16;5035808;28;20444;-79
2023/03/25 11:18:52;;;;;;;20.40;19.30;;;;;;;14.74;56.05;100243.66;5036252;28;20029;-80
2023/03/25 11:21:18;;;;;;;20.83;19.23;;;;;;;14.79;56.39;100250.94;5036010;28;20029;-78
2023/03/25 11:23:49;;;;;;;19.95;18.92;;;;;;;14.78;56.21;100244.69;5037144;28;20033;-78